Oskaloosa, Iowa
Current Conditions -  °F | °C
As of 4:55 PM on Tuesday 21 Oct 2014 (Local Time) from KOOA Reporting Station
Clear Clear  
Wind Chill: 62°   Ceiling: Unl
Heat Index: 62°   Visibility: 10mi
Dew Point: 40°   Wind: 7mph
Humidity: 45%   Direction: 70°ENE
Pressure: 30.14"   Gusts: NA
Location:  41.3°N, 92.64°W
Report Text: KOOA 212155Z AUTO 07006KT 10SM CLR 17/05 A3014 RMK AO2 T01650045
Loading
Personal Weather Stations






























Interactive Weather Map
Tropical Storm Tracking
New forecast layout! Learn more

10-Day Weather Forecast

Advertisements
Track Severe Weather on mobile